Time;durP1;ratioP1;P1;durP2;ratioP2;P2;SDS_P1;SDS_P2;PMS_P1;PMS_P2;Temp;Humidity;BMP_temperature;BMP_pressure;BME280_temperature;BME280_humidity;BME280_pressure;Samples;Min_cycle;Max_cycle;Signal;HPM_P1;HPM_P2
2023/06/10 00:01:01;;;;;;;5.30;4.80;;;;;;;;;;4998035;28;20092;-59
2023/06/10 00:03:26;;;;;;;4.93;4.43;;;;;;;;;;4998030;28;20058;-59
2023/06/10 00:05:52;;;;;;;5.57;5.18;;;;;;;;;;4999248;28;20129;-59
2023/06/10 00:08:19;;;;;;;4.57;4.15;;;;;;;;;;4999466;28;20386;-59
2023/06/10 00:10:45;;;;;;;5.82;5.22;;;;;;;;;;4998500;28;20473;-58
2023/06/10 00:13:11;;;;;;;6.20;4.82;;;;;;;;;;4999275;28;20045;-59
2023/06/10 00:15:37;;;;;;;5.47;4.97;;;;;;;;;;4998786;28;20493;-58
2023/06/10 00:18:03;;;;;;;4.90;4.50;;;;;;;;;;4990376;28;20042;-58
2023/06/10 00:20:30;;;;;;;4.80;4.40;;;;;;;;;;4999721;28;20030;-59
2023/06/10 00:22:56;;;;;;;6.10;5.50;;;;;;;;;;5013412;28;20046;-58
2023/06/10 00:25:22;;;;;;;4.90;4.50;;;;;;;;;;4998296;28;20120;-59
2023/06/10 00:27:48;;;;;;;505.47;452.93;;;;;;;;;;4999870;28;20042;-59
2023/06/10 00:30:13;;;;;;;459.30;407.07;;;;;;;;;;4999218;28;20116;-60
2023/06/10 00:32:38;;;;;;;456.50;368.90;;;;;;;;;;5000510;28;20046;-59
2023/06/10 00:35:04;;;;;;;429.73;347.07;;;;;;;;;;4999813;28;20118;-59
2023/06/10 00:37:31;;;;;;;430.13;342.37;;;;;;;;;;5012697;28;20042;-59
2023/06/10 00:39:57;;;;;;;414.13;320.80;;;;;;;;;;4989337;28;20112;-58
2023/06/10 00:42:24;;;;;;;411.17;324.37;;;;;;;;;;4999819;28;20823;-59
2023/06/10 00:44:50;;;;;;;440.97;380.83;;;;;;;;;;4998510;28;20034;-58
2023/06/10 00:47:16;;;;;;;434.37;366.23;;;;;;;;;;4999865;28;20028;-59
2023/06/10 00:49:41;;;;;;;439.70;379.70;;;;;;;;;;4998569;28;20049;-58
2023/06/10 00:52:07;;;;;;;443.17;390.83;;;;;;;;;;5014751;28;20041;-58
2023/06/10 00:54:33;;;;;;;444.73;388.90;;;;;;;;;;4999481;28;20046;-58
2023/06/10 00:57:00;;;;;;;478.67;427.70;;;;;;;;;;5000729;28;20038;-59
2023/06/10 00:59:26;;;;;;;484.83;432.30;;;;;;;;;;5000539;28;20030;-58
2023/06/10 01:01:52;;;;;;;590.00;533.70;;;;;;;;;;5000583;28;20633;-59
2023/06/10 01:04:19;;;;;;;466.17;415.37;;;;;;;;;;4992023;28;20065;-58
2023/06/10 01:06:57;;;;;;;484.57;433.90;;;;;;;;;;5001303;28;20485;-58
2023/06/10 01:09:28;;;;;;;511.90;459.20;;;;;;;;;;4994024;28;20834;-58
2023/06/10 01:11:57;;;;;;;586.90;531.23;;;;;;;;;;5002481;28;20029;-59
2023/06/10 01:14:22;;;;;;;505.20;453.93;;;;;;;;;;5002372;28;20144;-58
2023/06/10 01:16:48;;;;;;;522.30;470.33;;;;;;;;;;5001636;28;20216;-57
2023/06/10 01:19:14;;;;;;;528.80;476.07;;;;;;;;;;5001330;28;20073;-57
2023/06/10 01:21:40;;;;;;;533.83;480.93;;;;;;;;;;5000368;28;20304;-59
2023/06/10 01:24:08;;;;;;;531.23;478.73;;;;;;;;;;5003218;28;20488;-59
2023/06/10 01:26:34;;;;;;;542.93;489.83;;;;;;;;;;5001256;28;20053;-59
2023/06/10 01:29:04;;;;;;;562.27;508.90;;;;;;;;;;4992387;28;20045;-58
2023/06/10 01:31:50;;;;;;;555.37;501.77;;;;;;;;;;4999523;28;20185;-59
2023/06/10 01:34:17;;;;;;;548.17;494.80;;;;;;;;;;5000076;28;20076;-59
2023/06/10 01:36:45;;;;;;;546.27;492.87;;;;;;;;;;4991417;28;20462;-59
2023/06/10 01:39:11;;;;;;;537.27;484.17;;;;;;;;;;4992109;28;20111;-59
2023/06/10 01:41:37;;;;;;;545.63;492.53;;;;;;;;;;5002416;28;20037;-58
2023/06/10 01:44:04;;;;;;;546.30;492.63;;;;;;;;;;5001572;28;20061;-58
2023/06/10 01:46:29;;;;;;;571.83;518.47;;;;;;;;;;5001743;28;20491;-59
2023/06/10 01:48:55;;;;;;;542.83;490.13;;;;;;;;;;5002329;28;20092;-59
2023/06/10 01:51:20;;;;;;;544.50;491.83;;;;;;;;;;5001535;28;20132;-59
2023/06/10 01:53:46;;;;;;;557.57;504.33;;;;;;;;;;5001933;28;20386;-59
2023/06/10 01:56:17;;;;;;;571.53;517.83;;;;;;;;;;5014941;28;20093;-58
2023/06/10 01:58:44;;;;;;;565.90;512.57;;;;;;;;;;5002090;28;20068;-59
2023/06/10 02:01:09;;;;;;;553.33;500.17;;;;;;;;;;5000894;28;20025;-59
2023/06/10 02:03:36;;;;;;;564.80;511.43;;;;;;;;;;4992216;28;20066;-60
2023/06/10 02:06:01;;;;;;;560.27;506.87;;;;;;;;;;5001122;28;20108;-59
2023/06/10 02:08:27;;;;;;;574.50;520.80;;;;;;;;;;5002168;28;20060;-59
2023/06/10 02:10:53;;;;;;;561.77;508.47;;;;;;;;;;5002134;28;20544;-59
2023/06/10 02:13:18;;;;;;;570.23;516.73;;;;;;;;;;5002408;28;20073;-57
2023/06/10 02:15:44;;;;;;;555.83;502.80;;;;;;;;;;4992141;28;20026;-58
2023/06/10 02:18:11;;;;;;;571.70;518.37;;;;;;;;;;5002657;28;20046;-59
2023/06/10 02:20:40;;;;;;;586.73;532.87;;;;;;;;;;5001261;28;20030;-59
2023/06/10 02:23:05;;;;;;;572.83;519.03;;;;;;;;;;5001974;28;20653;-56
2023/06/10 02:25:31;;;;;;;558.97;505.73;;;;;;;;;;5002701;28;20046;-57
2023/06/10 02:27:57;;;;;;;550.83;497.40;;;;;;;;;;5003001;28;20041;-59
2023/06/10 02:30:24;;;;;;;549.00;495.90;;;;;;;;;;5016063;28;20484;-58
2023/06/10 02:32:50;;;;;;;550.33;497.13;;;;;;;;;;5002520;28;20033;-57
2023/06/10 02:35:18;;;;;;;542.60;489.80;;;;;;;;;;4990728;28;20042;-58
2023/06/10 02:37:43;;;;;;;558.50;505.50;;;;;;;;;;5001094;28;20038;-57
2023/06/10 02:40:10;;;;;;;558.70;505.67;;;;;;;;;;4991525;28;20037;-57
2023/06/10 02:42:37;;;;;;;569.40;516.00;;;;;;;;;;4999557;28;20045;-57
2023/06/10 02:45:03;;;;;;;554.47;501.17;;;;;;;;;;4998652;28;20141;-57
2023/06/10 02:47:37;;;;;;;560.97;507.63;;;;;;;;;;5007917;28;20070;-57
2023/06/10 02:50:03;;;;;;;562.73;509.33;;;;;;;;;;4999622;28;20038;-57
2023/06/10 02:52:31;;;;;;;562.03;508.63;;;;;;;;;;5007104;28;20132;-57
2023/06/10 02:54:57;;;;;;;614.00;559.43;;;;;;;;;;5016476;28;20599;-57
2023/06/10 02:57:22;;;;;;;601.23;547.07;;;;;;;;;;5000301;28;20026;-57
2023/06/10 02:59:48;;;;;;;598.17;543.93;;;;;;;;;;5000800;28;20034;-57
2023/06/10 03:02:14;;;;;;;600.13;546.17;;;;;;;;;;4989752;28;20037;-57
2023/06/10 03:04:45;;;;;;;614.47;559.83;;;;;;;;;;4998808;28;20054;-57
2023/06/10 03:07:14;;;;;;;599.03;544.43;;;;;;;;;;5001739;28;20276;-58
2023/06/10 03:09:40;;;;;;;594.00;539.73;;;;;;;;;;4999605;28;20268;-57
2023/06/10 03:12:10;;;;;;;594.83;540.57;;;;;;;;;;5001817;28;20045;-58
2023/06/10 03:14:42;;;;;;;601.10;546.60;;;;;;;;;;4998829;28;20045;-57
2023/06/10 03:17:09;;;;;;;596.67;542.53;;;;;;;;;;4990709;28;20060;-58
2023/06/10 03:19:38;;;;;;;588.67;534.77;;;;;;;;;;4998961;28;20096;-57
2023/06/10 03:22:14;;;;;;;616.87;562.10;;;;;;;;;;5014913;28;20359;-58
2023/06/10 03:24:57;;;;;;;583.17;529.27;;;;;;;;;;5000133;28;20037;-57
2023/06/10 03:27:25;;;;;;;592.87;538.40;;;;;;;;;;5015183;28;20041;-57
2023/06/10 03:29:54;;;;;;;599.33;545.13;;;;;;;;;;4998820;28;20034;-57
2023/06/10 03:32:20;;;;;;;626.30;571.30;;;;;;;;;;4999793;28;20029;-59
2023/06/10 03:34:47;;;;;;;602.73;548.30;;;;;;;;;;5001132;28;20639;-58
2023/06/10 03:37:14;;;;;;;600.87;546.20;;;;;;;;;;4989885;28;20038;-58
2023/06/10 03:39:41;;;;;;;612.47;557.97;;;;;;;;;;4998585;28;20042;-58
2023/06/10 03:42:07;;;;;;;619.33;564.47;;;;;;;;;;4990173;28;20113;-58
2023/06/10 03:44:33;;;;;;;627.23;572.37;;;;;;;;;;4989797;28;20300;-61
2023/06/10 03:46:59;;;;;;;618.23;563.40;;;;;;;;;;5005350;28;20048;-58
2023/06/10 03:49:28;;;;;;;624.47;569.27;;;;;;;;;;4989326;28;20041;-56
2023/06/10 03:51:56;;;;;;;620.27;565.43;;;;;;;;;;4999859;28;20085;-57
2023/06/10 03:54:22;;;;;;;637.60;582.17;;;;;;;;;;4989791;28;20523;-58
2023/06/10 03:56:51;;;;;;;619.50;564.80;;;;;;;;;;5005752;28;20096;-57
2023/06/10 03:59:16;;;;;;;629.43;574.23;;;;;;;;;;4998742;28;20089;-58
2023/06/10 04:01:43;;;;;;;639.00;583.60;;;;;;;;;;5015029;28;20084;-58
2023/06/10 04:04:09;;;;;;;622.97;568.10;;;;;;;;;;5014706;28;20062;-57
2023/06/10 04:06:34;;;;;;;640.10;585.07;;;;;;;;;;4998759;28;20643;-58
2023/06/10 04:09:00;;;;;;;645.30;589.70;;;;;;;;;;4998968;28;20085;-58
2023/06/10 04:11:27;;;;;;;627.73;572.63;;;;;;;;;;5004005;28;20065;-58
2023/06/10 04:13:52;;;;;;;631.20;576.10;;;;;;;;;;4998967;28;20488;-58
2023/06/10 04:16:18;;;;;;;627.23;572.10;;;;;;;;;;4998666;28;20079;-57
2023/06/10 04:18:46;;;;;;;627.37;572.10;;;;;;;;;;4997638;28;20113;-57
2023/06/10 04:21:11;;;;;;;636.93;581.67;;;;;;;;;;5013684;28;20437;-58
2023/06/10 04:23:38;;;;;;;637.60;582.27;;;;;;;;;;4997244;28;20520;-58
2023/06/10 04:26:05;;;;;;;643.93;588.47;;;;;;;;;;5014789;28;20038;-58
2023/06/10 04:28:31;;;;;;;651.20;595.60;;;;;;;;;;4999902;28;20447;-58
2023/06/10 04:30:58;;;;;;;650.43;594.97;;;;;;;;;;4989442;28;20046;-58
2023/06/10 04:33:24;;;;;;;658.30;602.70;;;;;;;;;;4988120;28;20045;-57
2023/06/10 04:35:50;;;;;;;651.47;595.90;;;;;;;;;;4990386;28;20112;-58
2023/06/10 04:38:17;;;;;;;663.77;607.43;;;;;;;;;;4993149;28;20030;-58
2023/06/10 04:40:44;;;;;;;706.33;648.00;;;;;;;;;;5001569;28;20037;-58
2023/06/10 04:43:11;;;;;;;666.77;609.57;;;;;;;;;;5001453;28;20396;-58
2023/06/10 04:45:36;;;;;;;644.00;588.53;;;;;;;;;;4993918;28;20046;-58
2023/06/10 04:48:03;;;;;;;683.87;621.00;;;;;;;;;;5003105;28;20527;-59
2023/06/10 04:50:28;;;;;;;633.07;577.80;;;;;;;;;;4992477;28;20424;-58
2023/06/10 04:52:56;;;;;;;677.20;617.47;;;;;;;;;;5001880;28;20484;-58
2023/06/10 04:55:23;;;;;;;658.07;601.60;;;;;;;;;;5001514;28;20042;-58
2023/06/10 04:57:48;;;;;;;663.67;607.20;;;;;;;;;;5003052;28;20053;-58
2023/06/10 05:00:14;;;;;;;642.83;587.40;;;;;;;;;;5002135;28;20088;-61
2023/06/10 05:02:39;;;;;;;652.13;596.73;;;;;;;;;;4993033;28;20054;-58
2023/06/10 05:05:06;;;;;;;666.67;610.77;;;;;;;;;;5001015;28;20053;-58
2023/06/10 05:07:31;;;;;;;675.10;618.73;;;;;;;;;;4999912;28;20030;-58
2023/06/10 05:09:57;;;;;;;678.03;621.47;;;;;;;;;;5003175;28;20188;-58
2023/06/10 05:12:22;;;;;;;684.63;628.07;;;;;;;;;;5003198;28;20040;-59
2023/06/10 05:14:48;;;;;;;712.23;655.03;;;;;;;;;;5003532;28;20148;-58
2023/06/10 05:17:14;;;;;;;703.93;646.97;;;;;;;;;;5001274;28;20442;-58
2023/06/10 05:19:41;;;;;;;715.43;658.07;;;;;;;;;;5003130;28;20135;-58
2023/06/10 05:22:06;;;;;;;707.60;650.57;;;;;;;;;;5003521;28;20037;-58
2023/06/10 05:24:32;;;;;;;705.53;648.13;;;;;;;;;;5003205;28;20412;-59
2023/06/10 05:26:57;;;;;;;709.93;652.73;;;;;;;;;;5001991;28;20042;-58
2023/06/10 05:29:23;;;;;;;716.17;658.83;;;;;;;;;;5000974;28;20038;-59
2023/06/10 05:31:48;;;;;;;732.17;674.47;;;;;;;;;;5002166;28;20029;-57
2023/06/10 05:34:13;;;;;;;726.07;668.27;;;;;;;;;;5001608;28;20609;-58
2023/06/10 05:36:39;;;;;;;730.17;672.50;;;;;;;;;;5003553;28;20512;-59
2023/06/10 05:39:04;;;;;;;724.53;666.77;;;;;;;;;;4999977;28;20030;-56
2023/06/10 05:41:30;;;;;;;730.23;672.53;;;;;;;;;;5003412;28;20041;-58
2023/06/10 05:43:56;;;;;;;734.37;676.40;;;;;;;;;;5003120;28;20046;-57
2023/06/10 05:46:21;;;;;;;729.07;671.53;;;;;;;;;;5003517;28;20509;-59
2023/06/10 05:48:47;;;;;;;727.93;670.53;;;;;;;;;;5003147;28;20058;-58
2023/06/10 05:51:12;;;;;;;744.90;687.13;;;;;;;;;;5002579;28;20061;-58
2023/06/10 05:53:38;;;;;;;758.77;700.37;;;;;;;;;;5003304;28;20400;-58
2023/06/10 05:56:03;;;;;;;726.30;669.07;;;;;;;;;;5001621;28;20038;-58
2023/06/10 05:58:29;;;;;;;733.57;675.63;;;;;;;;;;5002329;28;20046;-59
2023/06/10 06:00:54;;;;;;;727.73;670.20;;;;;;;;;;5000123;28;20048;-58
2023/06/10 06:03:20;;;;;;;723.63;666.33;;;;;;;;;;5002428;28;20568;-58
2023/06/10 06:05:46;;;;;;;733.33;675.97;;;;;;;;;;4992434;28;20458;-58
2023/06/10 06:08:13;;;;;;;754.37;696.37;;;;;;;;;;5003129;28;20072;-58
2023/06/10 06:10:38;;;;;;;763.70;705.50;;;;;;;;;;5001415;28;20173;-58
2023/06/10 06:13:04;;;;;;;768.80;710.53;;;;;;;;;;5001804;28;20489;-58
2023/06/10 06:15:29;;;;;;;770.47;711.93;;;;;;;;;;5000961;28;20037;-58
2023/06/10 06:17:55;;;;;;;769.80;711.17;;;;;;;;;;5001208;28;20049;-58
2023/06/10 06:20:21;;;;;;;777.20;718.53;;;;;;;;;;5001030;28;20042;-59
2023/06/10 06:22:46;;;;;;;787.33;728.37;;;;;;;;;;5000135;28;20492;-56
2023/06/10 06:25:12;;;;;;;783.23;724.37;;;;;;;;;;5001110;28;20133;-59
2023/06/10 06:27:37;;;;;;;780.23;721.50;;;;;;;;;;5016327;28;20453;-59
2023/06/10 06:30:03;;;;;;;796.70;737.53;;;;;;;;;;4999244;28;20038;-57
2023/06/10 06:32:29;;;;;;;778.60;719.77;;;;;;;;;;5000840;28;20033;-58
2023/06/10 06:34:54;;;;;;;792.47;733.33;;;;;;;;;;4997019;28;20397;-58
2023/06/10 06:37:23;;;;;;;795.93;736.30;;;;;;;;;;4999607;28;20480;-58
2023/06/10 06:39:54;;;;;;;791.47;732.47;;;;;;;;;;5015213;28;20033;-57
2023/06/10 06:42:20;;;;;;;809.53;749.77;;;;;;;;;;4999835;28;20505;-58
2023/06/10 06:45:02;;;;;;;796.93;737.63;;;;;;;;;;4997174;28;20492;-58
2023/06/10 06:47:28;;;;;;;788.37;729.30;;;;;;;;;;4995237;28;20037;-58
2023/06/10 06:49:53;;;;;;;790.47;731.37;;;;;;;;;;4999422;28;20042;-58
2023/06/10 06:52:19;;;;;;;784.13;725.17;;;;;;;;;;4999219;28;20488;-58
2023/06/10 06:54:45;;;;;;;780.77;722.10;;;;;;;;;;5000754;28;20092;-57
2023/06/10 06:57:10;;;;;;;785.40;726.53;;;;;;;;;;5000332;28;20977;-60
2023/06/10 06:59:36;;;;;;;791.60;732.33;;;;;;;;;;4998807;28;20046;-58
2023/06/10 07:02:02;;;;;;;798.00;738.77;;;;;;;;;;5000007;28;20046;-59
2023/06/10 07:04:28;;;;;;;799.90;740.43;;;;;;;;;;5015482;28;20081;-59
2023/06/10 07:06:54;;;;;;;802.33;742.87;;;;;;;;;;5000647;28;20140;-57
2023/06/10 07:09:19;;;;;;;801.90;742.23;;;;;;;;;;5000175;28;20044;-57
2023/06/10 07:11:45;;;;;;;804.83;745.47;;;;;;;;;;4999725;28;20098;-55
2023/06/10 07:14:10;;;;;;;806.50;746.80;;;;;;;;;;5000593;28;20686;-57
2023/06/10 07:16:36;;;;;;;806.30;746.60;;;;;;;;;;5000764;28;20615;-58
2023/06/10 07:19:01;;;;;;;814.90;755.10;;;;;;;;;;5000912;28;20038;-58
2023/06/10 07:21:28;;;;;;;821.80;761.87;;;;;;;;;;4999846;28;20180;-59
2023/06/10 07:23:54;;;;;;;821.37;761.37;;;;;;;;;;4999893;28;20096;-58
2023/06/10 07:26:21;;;;;;;810.80;750.77;;;;;;;;;;4998408;28;20484;-58
2023/06/10 07:28:47;;;;;;;805.23;745.60;;;;;;;;;;4999658;28;20034;-57
2023/06/10 07:31:12;;;;;;;804.20;744.53;;;;;;;;;;4990008;28;20464;-58
2023/06/10 07:33:41;;;;;;;806.00;746.23;;;;;;;;;;4998434;28;20513;-56
2023/06/10 07:36:06;;;;;;;807.53;747.47;;;;;;;;;;4997397;28;20034;-58
2023/06/10 07:38:32;;;;;;;804.67;744.77;;;;;;;;;;4999177;28;20061;-60
2023/06/10 07:40:58;;;;;;;810.50;750.53;;;;;;;;;;4998481;28;20066;-59
2023/06/10 07:43:24;;;;;;;806.77;747.10;;;;;;;;;;4998912;28;20070;-60
2023/06/10 07:45:50;;;;;;;820.50;760.23;;;;;;;;;;4998394;28;20038;-62
2023/06/10 07:48:15;;;;;;;814.27;754.47;;;;;;;;;;4999031;28;20495;-56
2023/06/10 07:50:41;;;;;;;836.63;775.90;;;;;;;;;;4998964;28;20030;-58
2023/06/10 07:53:06;;;;;;;829.13;768.47;;;;;;;;;;4998985;28;20049;-58
2023/06/10 07:55:32;;;;;;;831.10;770.70;;;;;;;;;;4998288;28;20572;-58
2023/06/10 07:57:57;;;;;;;828.30;768.00;;;;;;;;;;4998882;28;20049;-58
2023/06/10 08:00:23;;;;;;;832.67;771.73;;;;;;;;;;4998042;28;20093;-57
2023/06/10 08:02:48;;;;;;;821.87;761.70;;;;;;;;;;4997871;28;20037;-57
2023/06/10 08:05:14;;;;;;;826.17;765.73;;;;;;;;;;4998037;28;20034;-58
2023/06/10 08:07:40;;;;;;;827.63;767.33;;;;;;;;;;4997479;28;20336;-57
2023/06/10 08:10:05;;;;;;;841.20;780.30;;;;;;;;;;4997869;28;20037;-58
2023/06/10 08:12:31;;;;;;;838.60;778.07;;;;;;;;;;4998429;28;20065;-58
2023/06/10 08:14:57;;;;;;;845.87;785.13;;;;;;;;;;4997540;28;20054;-58
2023/06/10 08:17:23;;;;;;;846.63;785.30;;;;;;;;;;4999790;28;20085;-58
2023/06/10 08:19:48;;;;;;;851.90;790.93;;;;;;;;;;4999548;28;20603;-58
2023/06/10 08:22:14;;;;;;;856.73;795.23;;;;;;;;;;4998443;28;20080;-57
2023/06/10 08:24:40;;;;;;;859.93;798.37;;;;;;;;;;4997845;28;20034;-58
2023/06/10 08:27:06;;;;;;;852.70;791.23;;;;;;;;;;4995530;28;20495;-58
2023/06/10 08:29:31;;;;;;;857.63;796.07;;;;;;;;;;4996298;28;20504;-58
2023/06/10 08:31:57;;;;;;;854.47;792.70;;;;;;;;;;4986062;28;20316;-58
2023/06/10 08:34:23;;;;;;;859.43;797.77;;;;;;;;;;4987912;28;20055;-58
2023/06/10 08:36:53;;;;;;;855.87;794.60;;;;;;;;;;4998592;28;20450;-59
2023/06/10 08:39:19;;;;;;;862.30;800.90;;;;;;;;;;4999163;28;20034;-59
2023/06/10 08:41:50;;;;;;;861.27;800.10;;;;;;;;;;4999548;28;20108;-59
2023/06/10 08:44:18;;;;;;;858.50;797.37;;;;;;;;;;4998258;28;20072;-59
2023/06/10 08:46:44;;;;;;;855.00;793.77;;;;;;;;;;4999006;28;20034;-59
2023/06/10 08:49:10;;;;;;;851.23;789.47;;;;;;;;;;4999421;28;20080;-59
2023/06/10 08:51:36;;;;;;;861.33;800.20;;;;;;;;;;4998986;28;20552;-59
2023/06/10 08:54:05;;;;;;;857.77;796.03;;;;;;;;;;4999125;28;20029;-59
2023/06/10 08:56:34;;;;;;;857.20;796.07;;;;;;;;;;5000228;28;20050;-60
2023/06/10 08:59:00;;;;;;;853.60;792.60;;;;;;;;;;5000524;28;20130;-59
2023/06/10 09:01:25;;;;;;;845.40;784.63;;;;;;;;;;4997973;28;20552;-59
2023/06/10 09:03:51;;;;;;;848.83;788.17;;;;;;;;;;4999215;28;20065;-58
2023/06/10 09:06:17;;;;;;;846.07;785.37;;;;;;;;;;4999670;28;20307;-59
2023/06/10 09:08:43;;;;;;;844.67;783.97;;;;;;;;;;4998423;28;20069;-60
2023/06/10 09:11:09;;;;;;;850.13;789.07;;;;;;;;;;5000044;28;20523;-62
2023/06/10 09:13:34;;;;;;;844.53;782.97;;;;;;;;;;5000270;28;20483;-60
2023/06/10 09:16:01;;;;;;;820.87;760.87;;;;;;;;;;4999482;28;20038;-60
2023/06/10 09:18:27;;;;;;;830.67;770.50;;;;;;;;;;4999990;28;20049;-60
2023/06/10 09:20:53;;;;;;;829.07;768.47;;;;;;;;;;4999360;28;20038;-60
2023/06/10 09:23:18;;;;;;;829.63;769.50;;;;;;;;;;4999503;28;20535;-60
2023/06/10 09:25:44;;;;;;;828.40;768.37;;;;;;;;;;5002660;28;20143;-59
2023/06/10 09:28:13;;;;;;;820.77;761.07;;;;;;;;;;5003200;28;20034;-60
2023/06/10 09:30:39;;;;;;;832.37;772.03;;;;;;;;;;5002613;28;20038;-59
2023/06/10 09:33:18;;;;;;;820.63;760.87;;;;;;;;;;5003160;28;20073;-59
2023/06/10 09:35:46;;;;;;;821.63;761.67;;;;;;;;;;5003132;28;20029;-59
2023/06/10 09:38:13;;;;;;;809.33;749.73;;;;;;;;;;5003064;28;20038;-60
2023/06/10 09:40:48;;;;;;;822.70;762.50;;;;;;;;;;5001930;28;20069;-61
2023/06/10 09:43:14;;;;;;;814.33;754.73;;;;;;;;;;5002813;28;20038;-60
2023/06/10 09:45:40;;;;;;;814.03;754.37;;;;;;;;;;5001195;28;20085;-60
2023/06/10 09:48:05;;;;;;;803.03;743.70;;;;;;;;;;5002546;28;20277;-60
2023/06/10 09:50:33;;;;;;;807.67;748.30;;;;;;;;;;5001800;28;20457;-60
2023/06/10 09:52:58;;;;;;;807.43;747.73;;;;;;;;;;5000657;28;20061;-58
2023/06/10 09:55:24;;;;;;;821.17;760.87;;;;;;;;;;4998331;28;20053;-57
2023/06/10 09:57:49;;;;;;;830.37;769.87;;;;;;;;;;4987963;28;20129;-58
2023/06/10 10:00:15;;;;;;;814.67;754.97;;;;;;;;;;4998827;28;20136;-59
2023/06/10 10:02:51;;;;;;;820.23;760.43;;;;;;;;;;5000965;28;20034;-58
2023/06/10 10:05:17;;;;;;;824.53;764.50;;;;;;;;;;5001653;28;20061;-59
2023/06/10 10:07:44;;;;;;;822.80;763.00;;;;;;;;;;5001175;28;20030;-60
2023/06/10 10:10:10;;;;;;;825.80;765.60;;;;;;;;;;5002096;28;20026;-60
2023/06/10 10:12:37;;;;;;;832.63;772.63;;;;;;;;;;4999618;28;20030;-59
2023/06/10 10:15:03;;;;;;;831.20;771.17;;;;;;;;;;5001032;28;20116;-63
2023/06/10 10:17:29;;;;;;;833.13;772.87;;;;;;;;;;4997168;28;20123;-61
2023/06/10 10:19:59;;;;;;;830.40;770.20;;;;;;;;;;4999892;28;20053;-59
2023/06/10 10:22:31;;;;;;;837.20;776.90;;;;;;;;;;5003742;28;20038;-59
2023/06/10 10:24:58;;;;;;;831.87;771.87;;;;;;;;;;4988775;28;20088;-60
2023/06/10 10:27:27;;;;;;;848.57;787.90;;;;;;;;;;4999356;28;20053;-60
2023/06/10 10:29:54;;;;;;;849.00;788.17;;;;;;;;;;5000312;28;20033;-60
2023/06/10 10:32:25;;;;;;;854.37;793.27;;;;;;;;;;4990317;28;20042;-59
2023/06/10 10:35:04;;;;;;;853.83;792.93;;;;;;;;;;5001255;28;20574;-60
2023/06/10 10:37:30;;;;;;;863.90;802.63;;;;;;;;;;5000223;28;20030;-59
2023/06/10 10:39:56;;;;;;;879.43;817.60;;;;;;;;;;5000816;28;20033;-59
2023/06/10 10:42:22;;;;;;;888.63;826.30;;;;;;;;;;4990602;28;20120;-59
2023/06/10 10:44:49;;;;;;;896.60;833.83;;;;;;;;;;4994927;28;20137;-60
2023/06/10 10:47:15;;;;;;;884.53;822.73;;;;;;;;;;5000665;28;20134;-60
2023/06/10 10:49:42;;;;;;;891.77;829.33;;;;;;;;;;5000848;28;20074;-60
2023/06/10 10:52:11;;;;;;;884.53;822.50;;;;;;;;;;5000177;28;20132;-60
2023/06/10 10:54:39;;;;;;;884.67;822.93;;;;;;;;;;5001266;28;20048;-60
2023/06/10 10:57:11;;;;;;;880.83;818.93;;;;;;;;;;5001729;28;20034;-60
2023/06/10 10:59:59;;;;;;;928.60;864.63;;;;;;;;;;4999870;28;20034;-60
2023/06/10 11:02:35;;;;;;;924.73;860.87;;;;;;;;;;5001800;28;20112;-60
2023/06/10 11:05:01;;;;;;;926.53;862.43;;;;;;;;;;4999645;28;20056;-59
2023/06/10 11:07:26;;;;;;;921.13;857.67;;;;;;;;;;4995742;28;20022;-59
2023/06/10 11:10:08;;;;;;;912.50;849.63;;;;;;;;;;5000856;28;20161;-59
2023/06/10 11:12:40;;;;;;;901.23;838.63;;;;;;;;;;5000395;28;20362;-60
2023/06/10 11:15:06;;;;;;;897.80;835.03;;;;;;;;;;5002645;28;20429;-60
2023/06/10 11:17:31;;;;;;;907.00;843.53;;;;;;;;;;5004606;28;20079;-60
2023/06/10 11:19:58;;;;;;;915.50;849.17;;;;;;;;;;5002722;28;20064;-60
2023/06/10 11:22:23;;;;;;;942.33;864.63;;;;;;;;;;5000485;28;20615;-60
2023/06/10 11:24:51;;;;;;;939.87;873.57;;;;;;;;;;5001275;28;20038;-58
2023/06/10 11:27:21;;;;;;;945.33;881.03;;;;;;;;;;5000827;28;20033;-59
2023/06/10 11:30:03;;;;;;;945.27;880.70;;;;;;;;;;5000506;28;20509;-59
2023/06/10 11:32:32;;;;;;;956.83;892.20;;;;;;;;;;5000056;28;20065;-59
2023/06/10 11:34:57;;;;;;;972.00;906.10;;;;;;;;;;5000682;28;20140;-59
2023/06/10 11:37:23;;;;;;;974.30;908.83;;;;;;;;;;5002045;28;20468;-59
2023/06/10 11:39:53;;;;;;;983.30;917.07;;;;;;;;;;5000804;28;20592;-60
2023/06/10 11:42:19;;;;;;;988.23;921.83;;;;;;;;;;5000220;28;20645;-59
2023/06/10 11:44:51;;;;;;;1006.53;939.13;;;;;;;;;;4999789;28;20124;-59
2023/06/10 11:47:21;;;;;;;1002.77;936.17;;;;;;;;;;5000288;28;20038;-60
2023/06/10 11:49:56;;;;;;;1008.97;941.70;;;;;;;;;;4999907;28;20041;-59
2023/06/10 11:52:28;;;;;;;1013.65;946.28;;;;;;;;;;4997772;28;20033;-59
2023/06/10 11:54:55;;;;;;;1001.80;935.00;;;;;;;;;;4990806;28;20026;-61
2023/06/10 11:57:20;;;;;;;1003.23;936.13;;;;;;;;;;4998529;28;20030;-61
2023/06/10 11:59:45;;;;;;;1000.20;933.33;;;;;;;;;;4997374;28;20047;-59
2023/06/10 12:02:18;;;;;;;989.17;922.97;;;;;;;;;;5000174;28;20549;-59
2023/06/10 12:04:44;;;;;;;986.90;920.93;;;;;;;;;;5000288;28;20073;-61
2023/06/10 12:07:16;;;;;;;987.13;920.83;;;;;;;;;;5000242;28;20037;-59
2023/06/10 12:09:42;;;;;;;984.33;918.00;;;;;;;;;;5001756;28;20121;-58
2023/06/10 12:12:08;;;;;;;982.87;916.63;;;;;;;;;;5001769;28;20654;-59
2023/06/10 12:14:58;;;;;;;987.77;921.30;;;;;;;;;;5001180;28;20034;-60
2023/06/10 12:17:30;;;;;;;993.73;926.70;;;;;;;;;;4999116;28;20555;-57
2023/06/10 12:19:56;;;;;;;983.23;917.10;;;;;;;;;;5001677;28;20030;-59
2023/06/10 12:22:23;;;;;;;981.67;915.80;;;;;;;;;;5002443;28;20518;-58
2023/06/10 12:25:03;;;;;;;988.97;922.77;;;;;;;;;;5001495;28;20068;-59
2023/06/10 12:27:30;;;;;;;986.27;920.20;;;;;;;;;;5002840;28;20065;-57
2023/06/10 12:30:00;;;;;;;997.00;930.40;;;;;;;;;;5003028;28;20034;-59
2023/06/10 12:32:35;;;;;;;994.27;927.77;;;;;;;;;;5000446;28;20030;-59
2023/06/10 12:35:04;;;;;;;970.47;905.53;;;;;;;;;;4990417;28;20088;-59
2023/06/10 12:37:33;;;;;;;964.17;899.57;;;;;;;;;;5000377;28;20053;-61
2023/06/10 12:40:00;;;;;;;961.30;896.77;;;;;;;;;;4999686;28;20487;-56
2023/06/10 12:42:25;;;;;;;968.47;903.77;;;;;;;;;;5001811;28;20037;-58
2023/06/10 12:44:53;;;;;;;958.90;894.47;;;;;;;;;;5001783;28;20484;-56
2023/06/10 12:47:19;;;;;;;968.67;903.73;;;;;;;;;;5000114;28;20644;-56
2023/06/10 12:49:44;;;;;;;967.73;903.23;;;;;;;;;;4998708;28;20032;-58
2023/06/10 12:52:09;;;;;;;980.23;914.90;;;;;;;;;;4988731;28;20096;-57
2023/06/10 12:54:35;;;;;;;979.13;914.07;;;;;;;;;;4999500;28;20599;-58
2023/06/10 12:57:01;;;;;;;995.20;928.57;;;;;;;;;;5000305;28;20285;-58
2023/06/10 12:59:27;;;;;;;998.23;931.90;;;;;;;;;;5002679;28;20044;-58
2023/06/10 13:01:53;;;;;;;998.83;932.83;;;;;;;;;;4991608;28;20045;-58
2023/06/10 13:04:19;;;;;;;1006.43;939.83;;;;;;;;;;5002830;28;20054;-58
2023/06/10 13:06:46;;;;;;;994.10;928.20;;;;;;;;;;5003504;28;20034;-58
2023/06/10 13:09:12;;;;;;;1004.03;937.33;;;;;;;;;;5001349;28;20045;-58
2023/06/10 13:11:37;;;;;;;985.63;920.13;;;;;;;;;;5000551;28;20034;-57
2023/06/10 13:14:04;;;;;;;982.97;917.63;;;;;;;;;;5002580;28;20029;-59
2023/06/10 13:16:30;;;;;;;976.33;911.27;;;;;;;;;;5002888;28;20141;-57
2023/06/10 13:18:56;;;;;;;970.53;905.97;;;;;;;;;;5002010;28;20026;-58
2023/06/10 13:21:21;;;;;;;983.70;917.97;;;;;;;;;;5000723;28;20061;-58
2023/06/10 13:23:50;;;;;;;969.97;904.97;;;;;;;;;;5001451;28;20160;-58
2023/06/10 13:26:16;;;;;;;972.67;907.53;;;;;;;;;;5003075;28;20042;-58
2023/06/10 13:28:45;;;;;;;980.17;914.57;;;;;;;;;;4994006;28;20042;-58
2023/06/10 13:31:10;;;;;;;983.40;917.90;;;;;;;;;;5002286;28;20038;-56
2023/06/10 13:33:36;;;;;;;977.20;911.50;;;;;;;;;;4992186;28;20417;-58
2023/06/10 13:36:01;;;;;;;980.83;915.13;;;;;;;;;;5000637;28;20452;-58
2023/06/10 13:38:27;;;;;;;978.87;913.40;;;;;;;;;;5002759;28;20673;-58
2023/06/10 13:40:52;;;;;;;964.50;899.70;;;;;;;;;;5000224;28;20343;-56
2023/06/10 13:43:18;;;;;;;967.77;903.07;;;;;;;;;;5000068;28;20045;-59
2023/06/10 13:45:44;;;;;;;962.80;897.67;;;;;;;;;;4991098;28;20433;-58
2023/06/10 13:48:09;;;;;;;954.80;890.23;;;;;;;;;;5001846;28;20552;-58
2023/06/10 13:50:34;;;;;;;956.27;891.67;;;;;;;;;;5001899;28;20499;-58
2023/06/10 13:53:00;;;;;;;948.67;884.17;;;;;;;;;;5001762;28;20504;-59